createdAt,value
2022-12-24T00:01:09.166Z,0.53
2022-12-24T00:03:42.429Z,0.55
2022-12-24T00:06:25.780Z,0.55
2022-12-24T00:08:58.617Z,0.57
2022-12-24T00:11:31.768Z,0.61
2022-12-24T00:14:04.325Z,0.62
2022-12-24T00:16:37.397Z,0.59
2022-12-24T00:19:10.189Z,0.57
2022-12-24T00:21:43.606Z,0.47
2022-12-24T00:24:16.634Z,0.33
2022-12-24T00:26:49.656Z,0.13
2022-12-24T00:29:22.444Z,0.14
2022-12-24T00:31:55.238Z,0.05
2022-12-24T00:34:28.634Z,0.02
2022-12-24T00:37:01.433Z,0.08
2022-12-24T00:39:35.047Z,0.04
2022-12-24T00:42:08.289Z,0.10
2022-12-24T00:44:41.194Z,0.19
2022-12-24T00:47:14.340Z,0.28
2022-12-24T00:49:46.774Z,0.37
2022-12-24T00:52:19.675Z,0.42
2022-12-24T00:54:52.654Z,0.46
2022-12-24T00:57:25.284Z,0.41
2022-12-24T00:59:58.074Z,0.44
2022-12-24T01:02:31.496Z,0.38
2022-12-24T01:05:14.049Z,0.34
2022-12-24T01:07:46.229Z,0.35
2022-12-24T01:10:22.138Z,0.13
2022-12-24T01:12:55.033Z,0.12
2022-12-24T01:15:28.031Z,0.14
2022-12-24T01:18:01.091Z,0.11
2022-12-24T01:20:33.868Z,0.08
2022-12-24T01:23:07.049Z,0.21
2022-12-24T01:25:42.977Z,0.28
2022-12-24T01:28:16.361Z,0.33
2022-12-24T01:30:49.840Z,0.39
2022-12-24T01:33:22.916Z,0.46
2022-12-24T01:35:55.769Z,0.51
2022-12-24T01:38:28.552Z,0.54
2022-12-24T01:41:19.885Z,0.34
2022-12-24T01:43:53.071Z,0.30
2022-12-24T01:46:35.184Z,0.26
2022-12-24T01:49:07.428Z,0.17
2022-12-24T01:51:46.666Z,0.11
2022-12-24T01:54:28.372Z,0.09
2022-12-24T01:57:15.509Z,0.19
2022-12-24T01:59:51.466Z,0.22
2022-12-24T02:02:24.990Z,0.24
2022-12-24T02:05:08.781Z,0.19
2022-12-24T02:07:42.850Z,0.18
2022-12-24T02:10:17.097Z,0.22
2022-12-24T02:12:52.829Z,0.28
2022-12-24T02:15:26.350Z,0.20
2022-12-24T02:18:19.351Z,0.22
2022-12-24T02:21:01.321Z,0.29
2022-12-24T02:23:59.859Z,0.31
2022-12-24T02:27:23.742Z,0.42
2022-12-24T02:30:08.213Z,0.40
2022-12-24T02:33:06.514Z,0.46
2022-12-24T02:36:07.717Z,0.41
2022-12-24T02:39:15.715Z,0.27
2022-12-24T02:42:09.903Z,0.34
2022-12-24T02:45:02.935Z,0.25
2022-12-24T02:47:37.119Z,0.19
2022-12-24T02:50:12.133Z,0.18
2022-12-24T02:52:50.329Z,0.18
2022-12-24T02:55:28.591Z,0.17
2022-12-24T02:58:19.265Z,0.18
2022-12-24T03:01:28.363Z,0.16
2022-12-24T03:04:17.179Z,0.16
2022-12-24T03:07:02.439Z,0.21
2022-12-24T03:09:51.382Z,0.08
2022-12-24T03:12:34.039Z,0.18
2022-12-24T03:15:08.809Z,0.12
2022-12-24T03:17:43.681Z,0.25
2022-12-24T03:20:21.969Z,0.19
2022-12-24T03:22:58.128Z,0.13
2022-12-24T03:25:31.180Z,0.10
2022-12-24T03:28:06.955Z,0.02
2022-12-24T03:30:43.589Z,-0.00
2022-12-24T03:33:17.022Z,-0.05
2022-12-24T03:35:50.325Z,-0.17
2022-12-24T03:38:23.684Z,-0.16
2022-12-24T03:40:57.073Z,-0.18
2022-12-24T03:43:30.078Z,-0.11
2022-12-24T03:46:07.665Z,-0.12
2022-12-24T03:48:41.101Z,-0.04
2022-12-24T03:51:24.999Z,0.05
2022-12-24T03:54:00.105Z,0.12
2022-12-24T03:56:33.337Z,0.18
2022-12-24T03:59:06.697Z,0.14
2022-12-24T04:01:39.659Z,0.24
2022-12-24T04:04:12.550Z,0.26
2022-12-24T04:06:45.068Z,0.24
2022-12-24T04:09:17.854Z,0.17
2022-12-24T04:11:50.930Z,0.03
2022-12-24T04:14:23.751Z,-0.05
2022-12-24T04:16:56.543Z,-0.01
2022-12-24T04:19:29.513Z,-0.02
2022-12-24T04:22:02.346Z,0.00
2022-12-24T04:24:36.045Z,0.01
2022-12-24T04:27:09.302Z,-0.00
2022-12-24T04:29:42.083Z,-0.07
2022-12-24T04:32:15.287Z,-0.18
2022-12-24T04:34:48.436Z,-0.18
2022-12-24T04:37:21.574Z,-0.11
2022-12-24T04:39:54.747Z,-0.07
2022-12-24T04:42:27.927Z,0.00
2022-12-24T04:45:00.794Z,-0.02
2022-12-24T04:47:33.878Z,-0.04
2022-12-24T04:50:06.940Z,-0.15
2022-12-24T04:52:40.012Z,-0.21
2022-12-24T04:55:13.467Z,-0.29
2022-12-24T04:57:52.651Z,-0.28
2022-12-24T05:00:27.587Z,-0.54
2022-12-24T05:03:00.587Z,-0.55
2022-12-24T05:05:33.613Z,-0.65
2022-12-24T05:08:06.771Z,-0.61
2022-12-24T05:10:39.613Z,-0.61
2022-12-24T05:13:12.570Z,-0.60
2022-12-24T05:15:47.693Z,-0.48
2022-12-24T05:18:21.016Z,-0.39
2022-12-24T05:20:54.204Z,-0.32
2022-12-24T05:23:46.959Z,-0.22
2022-12-24T05:26:24.109Z,-0.24
2022-12-24T05:28:59.681Z,-0.13
2022-12-24T05:31:33.974Z,-0.15
2022-12-24T05:34:06.929Z,-0.22
2022-12-24T05:36:40.412Z,-0.21
2022-12-24T05:39:20.478Z,-0.27
2022-12-24T05:41:53.663Z,-0.19
2022-12-24T05:44:26.651Z,-0.18
2022-12-24T05:46:59.548Z,-0.20
2022-12-24T05:49:32.636Z,-0.20
2022-12-24T05:52:05.953Z,-0.31
2022-12-24T05:54:38.851Z,-0.37
2022-12-24T05:57:11.577Z,-0.41
2022-12-24T05:59:44.317Z,-0.38
2022-12-24T06:02:17.532Z,-0.34
2022-12-24T06:04:50.485Z,-0.27
2022-12-24T06:07:23.996Z,-0.19
2022-12-24T06:09:56.851Z,-0.21
2022-12-24T06:12:29.879Z,-0.10
2022-12-24T06:15:02.901Z,-0.03
2022-12-24T06:17:36.121Z,-0.01
2022-12-24T06:20:09.755Z,-0.03
2022-12-24T06:22:42.764Z,-0.04
2022-12-24T06:25:16.014Z,-0.09
2022-12-24T06:27:50.290Z,-0.08
2022-12-24T06:30:23.180Z,-0.09
2022-12-24T06:32:55.937Z,-0.11
2022-12-24T06:35:29.128Z,-0.10
2022-12-24T06:38:02.143Z,-0.09
2022-12-24T06:40:35.314Z,-0.10
2022-12-24T06:43:09.405Z,-0.04
2022-12-24T06:45:46.336Z,-0.05
2022-12-24T06:48:20.657Z,-0.03
2022-12-24T06:50:53.873Z,0.07
2022-12-24T06:53:26.823Z,0.17
2022-12-24T06:56:11.084Z,0.24
2022-12-24T06:58:44.208Z,0.24
2022-12-24T07:01:19.843Z,0.16
2022-12-24T07:03:52.856Z,0.29
2022-12-24T07:06:31.544Z,0.30
2022-12-24T07:09:04.737Z,0.30
2022-12-24T07:11:37.413Z,0.30
2022-12-24T07:14:10.099Z,0.46
2022-12-24T07:16:42.870Z,0.43
2022-12-24T07:19:17.865Z,0.55
2022-12-24T07:21:50.760Z,0.47
2022-12-24T07:24:23.299Z,0.37
2022-12-24T07:26:55.615Z,0.34
2022-12-24T07:29:33.056Z,0.43
2022-12-24T07:32:06.046Z,0.49
2022-12-24T07:34:40.053Z,0.60
2022-12-24T07:37:12.989Z,0.63
2022-12-24T07:39:50.021Z,0.81
2022-12-24T07:42:22.772Z,0.94
2022-12-24T07:44:55.796Z,1.04
2022-12-24T07:47:28.840Z,1.11
2022-12-24T07:50:02.110Z,1.19
2022-12-24T07:52:34.488Z,1.11
2022-12-24T07:55:07.736Z,0.95
2022-12-24T07:57:40.453Z,0.98
2022-12-24T08:00:14.192Z,1.05
2022-12-24T08:02:47.570Z,1.11
2022-12-24T08:05:20.773Z,1.14
2022-12-24T08:07:53.907Z,1.29
2022-12-24T08:10:26.974Z,1.31
2022-12-24T08:12:59.829Z,1.32
2022-12-24T08:15:32.817Z,1.48
2022-12-24T08:18:05.923Z,1.51
2022-12-24T08:20:41.358Z,1.45
2022-12-24T08:23:14.006Z,1.38
2022-12-24T08:25:48.457Z,1.60
2022-12-24T08:28:22.530Z,1.59
2022-12-24T08:30:56.376Z,1.67
2022-12-24T08:33:29.254Z,1.77
2022-12-24T08:36:04.325Z,1.80
2022-12-24T08:38:37.318Z,1.87
2022-12-24T08:41:09.980Z,1.83
2022-12-24T08:43:42.797Z,1.86
2022-12-24T08:46:15.619Z,2.10
2022-12-24T08:48:53.342Z,2.21
2022-12-24T08:51:26.383Z,2.32
2022-12-24T08:53:59.094Z,2.40
2022-12-24T08:56:32.064Z,2.31
2022-12-24T08:59:04.649Z,2.45
2022-12-24T09:01:37.498Z,2.41
2022-12-24T09:04:10.345Z,2.37
2022-12-24T09:06:43.329Z,2.53
2022-12-24T09:09:16.314Z,2.31
2022-12-24T09:11:48.992Z,2.30
2022-12-24T09:14:22.168Z,2.32
2022-12-24T09:16:55.556Z,2.43
2022-12-24T09:19:28.998Z,2.34
2022-12-24T09:22:01.511Z,2.36
2022-12-24T09:24:34.233Z,2.42
2022-12-24T09:27:07.063Z,2.37
2022-12-24T09:29:41.007Z,2.38
2022-12-24T09:32:14.181Z,2.45
2022-12-24T09:34:46.750Z,2.52
2022-12-24T09:37:19.691Z,2.64
2022-12-24T09:39:52.239Z,2.74
2022-12-24T09:42:34.847Z,2.85
2022-12-24T09:45:24.338Z,2.85
2022-12-24T09:48:16.446Z,2.95
2022-12-24T09:51:01.270Z,2.96
2022-12-24T09:53:59.028Z,2.97
2022-12-24T09:56:40.210Z,2.90
2022-12-24T09:59:24.517Z,2.88
2022-12-24T10:01:58.206Z,2.95
2022-12-24T10:04:34.208Z,2.96
2022-12-24T10:07:06.453Z,2.98
2022-12-24T10:09:43.039Z,2.98
2022-12-24T10:12:44.529Z,2.78
2022-12-24T10:15:38.279Z,2.82
2022-12-24T10:18:45.631Z,3.14
2022-12-24T10:22:06.745Z,3.36
2022-12-24T10:25:08.287Z,3.57
2022-12-24T10:27:42.702Z,3.66
2022-12-24T10:30:25.813Z,3.62
2022-12-24T10:32:58.941Z,3.75
2022-12-24T10:35:44.153Z,3.84
2022-12-24T10:38:16.907Z,3.96
2022-12-24T10:40:53.505Z,3.99
2022-12-24T10:43:28.260Z,3.92
2022-12-24T10:46:25.146Z,3.98
2022-12-24T10:49:02.361Z,3.94
2022-12-24T10:51:47.067Z,3.88
2022-12-24T10:54:27.401Z,3.86
2022-12-24T10:57:03.635Z,3.89
2022-12-24T10:59:56.737Z,3.88
2022-12-24T11:02:40.243Z,3.89
2022-12-24T11:05:32.399Z,3.93
2022-12-24T11:08:07.470Z,4.07
2022-12-24T11:10:44.301Z,4.10
2022-12-24T11:13:37.814Z,4.05
2022-12-24T11:16:32.743Z,3.99
2022-12-24T11:19:21.218Z,4.04
2022-12-24T11:22:05.723Z,4.18
2022-12-24T11:24:43.774Z,4.25
2022-12-24T11:27:58.808Z,4.41
2022-12-24T11:30:35.776Z,4.46
2022-12-24T11:33:12.237Z,4.49
2022-12-24T11:35:49.568Z,4.53
2022-12-24T11:38:28.287Z,4.53
2022-12-24T11:41:04.504Z,4.54
2022-12-24T11:43:48.257Z,4.53
2022-12-24T11:46:39.810Z,4.60
2022-12-24T11:49:15.062Z,4.73
2022-12-24T11:52:13.699Z,4.77
2022-12-24T11:55:07.621Z,4.77
2022-12-24T11:57:56.830Z,4.81
2022-12-24T12:00:30.618Z,4.90
2022-12-24T12:03:06.082Z,4.83
2022-12-24T12:05:40.292Z,4.86
2022-12-24T12:08:22.048Z,4.83
2022-12-24T12:10:56.897Z,4.97
2022-12-24T12:13:34.642Z,4.96
2022-12-24T12:16:24.422Z,5.04
2022-12-24T12:19:10.012Z,5.08
2022-12-24T12:21:51.330Z,5.18
2022-12-24T12:24:38.674Z,5.24
2022-12-24T12:27:28.057Z,5.33
2022-12-24T12:30:07.822Z,5.38
2022-12-24T12:32:54.699Z,5.30
2022-12-24T12:35:34.847Z,5.28
2022-12-24T12:38:13.191Z,5.21
2022-12-24T12:41:14.572Z,5.11
2022-12-24T12:44:12.282Z,5.10
2022-12-24T12:47:02.022Z,4.95
2022-12-24T12:49:34.489Z,4.90
2022-12-24T12:52:42.352Z,4.87
2022-12-24T12:55:26.775Z,4.83
2022-12-24T12:58:05.665Z,4.82
2022-12-24T13:00:45.731Z,4.83
2022-12-24T13:03:53.585Z,4.88
2022-12-24T13:06:40.696Z,4.99
2022-12-24T13:09:35.567Z,4.95
2022-12-24T13:12:13.620Z,4.92
2022-12-24T13:15:21.610Z,4.94
2022-12-24T13:18:22.695Z,4.94
2022-12-24T13:20:56.330Z,4.92
2022-12-24T13:23:30.906Z,4.86
2022-12-24T13:26:15.144Z,4.74
2022-12-24T13:28:48.178Z,4.72
2022-12-24T13:31:28.558Z,4.62
2022-12-24T13:34:03.651Z,4.66
2022-12-24T13:37:07.520Z,4.64
2022-12-24T13:40:16.716Z,4.66
2022-12-24T13:43:02.017Z,4.66
2022-12-24T13:45:34.497Z,4.71
2022-12-24T13:48:09.364Z,4.71
2022-12-24T13:50:46.211Z,4.79
2022-12-24T13:53:41.187Z,4.84
2022-12-24T13:56:28.454Z,4.86
2022-12-24T13:59:23.021Z,4.85
2022-12-24T14:01:55.938Z,4.76
2022-12-24T14:04:35.939Z,4.82
2022-12-24T14:07:09.593Z,4.80
2022-12-24T14:09:53.173Z,4.75
2022-12-24T14:12:51.404Z,4.73
2022-12-24T14:15:52.226Z,4.69
2022-12-24T14:18:26.878Z,4.65
2022-12-24T14:21:02.081Z,4.63
2022-12-24T14:23:59.040Z,4.64
2022-12-24T14:26:36.833Z,4.61
2022-12-24T14:29:25.039Z,4.52
2022-12-24T14:32:01.362Z,4.58
2022-12-24T14:34:34.507Z,4.53
2022-12-24T14:37:07.870Z,4.46
2022-12-24T14:39:48.388Z,4.37
2022-12-24T14:42:48.261Z,4.30
2022-12-24T14:45:23.256Z,4.17
2022-12-24T14:48:13.924Z,4.07
2022-12-24T14:51:08.528Z,4.15
2022-12-24T14:53:53.875Z,4.23
2022-12-24T14:56:26.695Z,4.20
2022-12-24T14:59:06.824Z,4.24
2022-12-24T15:01:39.955Z,4.22
2022-12-24T15:04:12.671Z,4.06
2022-12-24T15:06:53.148Z,4.16
2022-12-24T15:09:34.231Z,4.13
2022-12-24T15:12:07.471Z,4.16
2022-12-24T15:14:46.182Z,4.19
2022-12-24T15:17:18.835Z,4.31
2022-12-24T15:19:54.681Z,4.33
2022-12-24T15:22:32.510Z,4.35
2022-12-24T15:25:04.970Z,4.38
2022-12-24T15:27:41.914Z,4.35
2022-12-24T15:30:20.702Z,4.33
2022-12-24T15:32:58.405Z,4.28
2022-12-24T15:35:55.275Z,4.40
2022-12-24T15:38:40.364Z,4.35
2022-12-24T15:41:28.518Z,4.38
2022-12-24T15:44:04.687Z,4.30
2022-12-24T15:46:37.702Z,4.21
2022-12-24T15:49:19.039Z,4.23
2022-12-24T15:51:51.751Z,4.14
2022-12-24T15:54:25.547Z,4.00
2022-12-24T15:56:58.491Z,4.14
2022-12-24T15:59:36.497Z,4.18
2022-12-24T16:02:29.590Z,4.21
2022-12-24T16:05:24.781Z,4.37
2022-12-24T16:08:26.800Z,4.36
2022-12-24T16:11:12.354Z,4.42
2022-12-24T16:13:57.229Z,4.37
2022-12-24T16:16:41.702Z,4.39
2022-12-24T16:19:28.079Z,4.45
2022-12-24T16:22:27.503Z,4.37
2022-12-24T16:25:03.677Z,4.43
2022-12-24T16:27:36.997Z,4.36
2022-12-24T16:30:18.026Z,4.27
2022-12-24T16:32:51.951Z,4.26
2022-12-24T16:35:36.922Z,4.29
2022-12-24T16:38:09.641Z,4.22
2022-12-24T16:40:43.355Z,4.34
2022-12-24T16:43:35.225Z,4.38
2022-12-24T16:46:09.407Z,4.40
2022-12-24T16:48:48.710Z,4.38
2022-12-24T16:51:21.273Z,4.37
2022-12-24T16:53:54.004Z,4.31
2022-12-24T16:56:27.138Z,4.35
2022-12-24T16:59:01.215Z,4.33
2022-12-24T17:01:34.088Z,4.31
2022-12-24T17:04:07.384Z,4.18
2022-12-24T17:06:40.203Z,4.20
2022-12-24T17:09:13.933Z,4.15
2022-12-24T17:11:46.653Z,4.14
2022-12-24T17:14:20.801Z,4.11
2022-12-24T17:16:54.258Z,4.11
2022-12-24T17:19:26.799Z,4.13
2022-12-24T17:21:59.500Z,4.24
2022-12-24T17:24:32.916Z,4.30
2022-12-24T17:27:05.548Z,4.34
2022-12-24T17:29:38.200Z,4.40
2022-12-24T17:32:11.576Z,4.41
2022-12-24T17:34:44.436Z,4.39
2022-12-24T17:37:17.364Z,4.47
2022-12-24T17:39:50.276Z,4.31
2022-12-24T17:42:22.805Z,4.34
2022-12-24T17:44:55.959Z,4.40
2022-12-24T17:47:28.980Z,4.36
2022-12-24T17:50:01.797Z,4.30
2022-12-24T17:52:35.165Z,4.25
2022-12-24T17:55:09.527Z,4.23
2022-12-24T17:57:43.015Z,4.21
2022-12-24T18:00:16.748Z,4.02
2022-12-24T18:02:49.749Z,4.15
2022-12-24T18:05:22.915Z,4.14
2022-12-24T18:07:55.755Z,4.13
2022-12-24T18:10:28.847Z,4.17
2022-12-24T18:13:01.578Z,4.13
2022-12-24T18:15:37.441Z,4.04
2022-12-24T18:18:11.306Z,3.95
2022-12-24T18:20:46.924Z,3.91
2022-12-24T18:23:20.579Z,3.90
2022-12-24T18:25:53.866Z,3.79
2022-12-24T18:28:26.677Z,3.82
2022-12-24T18:31:10.396Z,3.78
2022-12-24T18:33:43.388Z,3.73
2022-12-24T18:36:17.218Z,3.63
2022-12-24T18:38:49.835Z,3.49
2022-12-24T18:41:25.062Z,3.57
2022-12-24T18:43:58.696Z,3.57
2022-12-24T18:46:34.162Z,3.69
2022-12-24T18:49:06.930Z,3.75
2022-12-24T18:51:40.169Z,3.87
2022-12-24T18:54:12.657Z,3.91
2022-12-24T18:56:45.655Z,3.95
2022-12-24T18:59:18.676Z,3.96
2022-12-24T19:01:51.580Z,3.97
2022-12-24T19:04:24.729Z,4.06
2022-12-24T19:06:57.626Z,4.00
2022-12-24T19:09:30.173Z,3.97
2022-12-24T19:12:03.421Z,3.93
2022-12-24T19:14:36.497Z,3.86
2022-12-24T19:17:09.437Z,3.90
2022-12-24T19:19:42.387Z,3.92
2022-12-24T19:22:15.326Z,3.93
2022-12-24T19:24:48.419Z,4.00
2022-12-24T19:27:21.645Z,4.12
2022-12-24T19:29:54.339Z,4.20
2022-12-24T19:32:26.976Z,4.19
2022-12-24T19:34:59.643Z,4.17
2022-12-24T19:37:32.903Z,4.28
2022-12-24T19:40:05.930Z,4.31
2022-12-24T19:42:38.608Z,4.30
2022-12-24T19:45:12.269Z,4.20
2022-12-24T19:47:44.991Z,4.13
2022-12-24T19:50:18.624Z,4.12
2022-12-24T19:52:51.437Z,4.07
2022-12-24T19:55:24.459Z,4.04
2022-12-24T19:57:57.618Z,3.96
2022-12-24T20:00:30.549Z,3.83
2022-12-24T20:03:03.260Z,3.84
2022-12-24T20:05:36.207Z,3.82
2022-12-24T20:08:09.347Z,3.92
2022-12-24T20:10:45.928Z,3.92
2022-12-24T20:13:18.877Z,4.06
2022-12-24T20:15:51.902Z,4.13
2022-12-24T20:18:24.242Z,4.18
2022-12-24T20:21:01.384Z,4.11
2022-12-24T20:23:34.562Z,4.11
2022-12-24T20:26:08.712Z,4.18
2022-12-24T20:28:41.775Z,4.00
2022-12-24T20:31:20.213Z,4.03
2022-12-24T20:33:53.138Z,3.99
2022-12-24T20:36:26.908Z,4.00
2022-12-24T20:39:00.341Z,3.94
2022-12-24T20:41:34.715Z,3.85
2022-12-24T20:44:07.629Z,3.81
2022-12-24T20:46:40.472Z,3.82
2022-12-24T20:49:14.550Z,3.84
2022-12-24T20:51:47.366Z,3.83
2022-12-24T20:54:21.358Z,3.96
2022-12-24T20:56:58.370Z,3.99
2022-12-24T20:59:33.355Z,4.01
2022-12-24T21:02:06.648Z,3.94
2022-12-24T21:04:39.967Z,4.01
2022-12-24T21:07:14.812Z,4.01
2022-12-24T21:09:47.477Z,4.02
2022-12-24T21:12:38.581Z,4.02
2022-12-24T21:15:11.557Z,4.01
2022-12-24T21:17:44.669Z,3.95
2022-12-24T21:20:18.008Z,3.94
2022-12-24T21:22:55.860Z,3.84
2022-12-24T21:25:33.875Z,3.88
2022-12-24T21:28:06.854Z,3.82
2022-12-24T21:30:43.268Z,3.85
2022-12-24T21:33:16.151Z,3.65
2022-12-24T21:35:48.892Z,3.64
2022-12-24T21:38:21.613Z,3.63
2022-12-24T21:41:10.064Z,3.59
2022-12-24T21:43:43.747Z,3.52
2022-12-24T21:46:19.835Z,3.56
2022-12-24T21:49:14.430Z,3.61
2022-12-24T21:51:49.319Z,3.67
2022-12-24T21:54:27.678Z,3.74
2022-12-24T21:57:22.684Z,3.79
2022-12-24T21:59:57.341Z,3.74
2022-12-24T22:02:30.537Z,3.81
2022-12-24T22:05:04.387Z,3.86
2022-12-24T22:07:56.127Z,3.90
2022-12-24T22:10:47.979Z,4.02
2022-12-24T22:13:21.362Z,4.10
2022-12-24T22:15:55.209Z,4.12
2022-12-24T22:18:28.515Z,4.12
2022-12-24T22:21:04.715Z,4.12
2022-12-24T22:23:42.371Z,4.07
2022-12-24T22:26:19.261Z,4.03
2022-12-24T22:28:52.355Z,4.01
2022-12-24T22:31:27.118Z,3.90
2022-12-24T22:34:00.383Z,3.89
2022-12-24T22:36:34.047Z,4.02
2022-12-24T22:39:06.839Z,4.01
2022-12-24T22:41:39.653Z,4.02
2022-12-24T22:44:12.911Z,3.96
2022-12-24T22:46:45.859Z,3.88
2022-12-24T22:49:18.651Z,3.91
2022-12-24T22:51:51.515Z,3.85
2022-12-24T22:54:24.695Z,3.91
2022-12-24T22:56:57.906Z,3.91
2022-12-24T22:59:30.497Z,3.82
2022-12-24T23:02:05.392Z,3.86
2022-12-24T23:04:41.965Z,3.84
2022-12-24T23:07:15.241Z,3.83
2022-12-24T23:09:47.993Z,3.79
2022-12-24T23:12:41.179Z,3.94
2022-12-24T23:15:14.398Z,3.96
2022-12-24T23:17:50.205Z,3.93
2022-12-24T23:20:23.296Z,4.09
2022-12-24T23:22:56.031Z,4.13
2022-12-24T23:25:28.627Z,4.10
2022-12-24T23:28:01.359Z,4.24
2022-12-24T23:30:34.026Z,4.27
2022-12-24T23:33:06.810Z,4.27
2022-12-24T23:35:39.822Z,4.26
2022-12-24T23:38:12.413Z,4.24
2022-12-24T23:40:45.012Z,4.22
2022-12-24T23:43:17.652Z,4.20
2022-12-24T23:45:54.129Z,4.18
2022-12-24T23:48:27.262Z,4.13
2022-12-24T23:51:11.199Z,4.08
2022-12-24T23:53:43.698Z,3.99
2022-12-24T23:56:16.544Z,3.90
2022-12-24T23:58:49.920Z,3.85
